Time;durP1;ratioP1;P1;durP2;ratioP2;P2;SDS_P1;SDS_P2;PMS_P1;PMS_P2;Temp;Humidity;BMP_temperature;BMP_pressure;BME280_temperature;BME280_humidity;BME280_pressure;Samples;Min_cycle;Max_cycle;Signal;HPM_P1;HPM_P2
2023/08/28 00:01:16;;;;;;;3.13;2.70;;;14.70;1.00;;;;;;5078324;28;20407;-83
2023/08/28 00:03:43;;;;;;;3.30;2.40;;;16.30;1.00;;;;;;5046422;28;20411;-83
2023/08/28 00:06:08;;;;;;;2.88;2.67;;;14.60;1.00;;;;;;5067561;28;20402;-83
2023/08/28 00:08:34;;;;;;;4.22;2.40;;;14.00;1.00;;;;;;5070119;28;20381;-84
2023/08/28 00:11:00;;;;;;;2.83;2.55;;;14.30;1.00;;;;;;5062895;28;20460;-83
2023/08/28 00:13:26;;;;;;;4.90;2.72;;;14.20;1.00;;;;;;5071761;28;20385;-83
2023/08/28 00:15:52;;;;;;;3.20;2.60;;;14.60;1.00;;;;;;5065491;28;20466;-83
2023/08/28 00:18:17;;;;;;;4.40;2.53;;;16.10;1.00;;;;;;5071315;28;20376;-83
2023/08/28 00:20:43;;;;;;;5.10;2.53;;;15.50;1.00;;;;;;5073754;28;20416;-83
2023/08/28 00:23:09;;;;;;;8.30;2.70;;;14.60;1.00;;;;;;5076101;28;20512;-83
2023/08/28 00:25:36;;;;;;;3.50;2.45;;;14.00;1.00;;;;;;5080154;28;20405;-83
2023/08/28 00:28:01;;;;;;;3.60;2.40;;;14.60;1.00;;;;;;5053973;28;20466;-83
2023/08/28 00:30:27;;;;;;;3.10;2.30;;;14.30;1.00;;;;;;5068053;28;20420;-83
2023/08/28 00:32:53;;;;;;;3.30;2.28;;;14.90;1.00;;;;;;5070719;28;20432;-83
2023/08/28 00:35:18;;;;;;;2.43;2.23;;;14.40;1.00;;;;;;5060248;28;20389;-83
2023/08/28 00:37:43;;;;;;;3.30;2.40;;;14.80;1.00;;;;;;5075208;28;20885;-83
2023/08/28 00:40:13;;;;;;;2.13;2.00;;;14.40;1.00;;;;;;5056831;28;20396;-83
2023/08/28 00:42:39;;;;;;;2.75;2.50;;;14.80;1.00;;;;;;5065260;28;20391;-82
2023/08/28 00:45:05;;;;;;;3.92;2.60;;;14.70;1.00;;;;;;5050592;28;20791;-82
2023/08/28 00:47:30;;;;;;;3.30;1.80;;;14.70;1.00;;;;;;5070347;28;20410;-81
2023/08/28 00:49:56;;;;;;;3.95;2.50;;;14.60;1.00;;;;;;5058772;28;20388;-82
2023/08/28 00:52:21;;;;;;;3.07;2.37;;;14.60;1.00;;;;;;5062230;28;20391;-82
2023/08/28 00:54:47;;;;;;;2.90;2.60;;;14.10;1.00;;;;;;5062959;28;20389;-82
2023/08/28 00:57:15;;;;;;;3.10;2.53;;;14.60;1.00;;;;;;5051455;28;20967;-82
2023/08/28 00:59:42;;;;;;;2.20;2.00;;;14.60;1.00;;;;;;5070622;28;20430;-80
2023/08/28 01:02:07;;;;;;;2.90;2.10;;;14.50;1.00;;;;;;5061485;28;20946;-83
2023/08/28 01:04:33;;;;;;;3.40;2.10;;;14.50;1.00;;;;;;5065982;28;20461;-82
2023/08/28 01:07:25;;;;;;;3.77;2.30;;;14.20;1.00;;;;;;5062122;28;20399;-82
2023/08/28 01:09:59;;;;;;;2.88;2.20;;;14.70;1.00;;;;;;5057952;28;20415;-83
2023/08/28 01:12:36;;;;;;;2.83;2.10;;;14.90;1.00;;;;;;5056392;28;20402;-83
2023/08/28 01:15:16;;;;;;;2.30;2.10;;;14.70;1.00;;;;;;5061720;28;20381;-83
2023/08/28 01:17:44;;;;;;;3.40;2.30;;;14.50;1.00;;;;;;5062231;28;20459;-83
2023/08/28 01:20:12;;;;;;;3.45;2.10;;;14.60;1.00;;;;;;5062707;28;20417;-83
2023/08/28 01:22:49;;;;;;;2.83;2.00;;;15.80;1.00;;;;;;5062650;28;20390;-83
2023/08/28 01:25:16;;;;;;;2.60;2.20;;;14.60;1.00;;;;;;5050484;28;20438;-83
2023/08/28 01:27:42;;;;;;;5.55;2.20;;;14.10;1.00;;;;;;5043001;28;20779;-83
2023/08/28 01:30:10;;;;;;;2.10;1.83;;;14.60;1.00;;;;;;5073014;22;20979;-81
2023/08/28 01:32:37;;;;;;;2.63;2.10;;;14.70;1.00;;;;;;5056091;28;20451;-80
2023/08/28 01:35:09;;;;;;;3.08;1.88;;;14.70;1.00;;;;;;5046989;28;20410;-81
2023/08/28 01:37:58;;;;;;;3.00;2.30;;;14.60;1.00;;;;;;5036093;28;20391;-80
2023/08/28 01:40:30;;;;;;;3.50;2.40;;;14.70;1.00;;;;;;5037257;28;20390;-81
2023/08/28 01:42:57;;;;;;;2.20;2.00;;;14.00;1.00;;;;;;5054261;28;20924;-81
2023/08/28 01:45:23;;;;;;;3.53;2.10;;;14.60;1.00;;;;;;5054592;28;20486;-81
2023/08/28 01:47:49;;;;;;;3.83;2.13;;;14.50;1.00;;;;;;5056061;28;20944;-81
2023/08/28 01:50:14;;;;;;;2.10;2.00;;;14.40;1.00;;;;;;5055225;28;20837;-80
2023/08/28 01:52:40;;;;;;;2.05;1.88;;;14.60;1.00;;;;;;5055510;28;20410;-81
2023/08/28 01:55:06;;;;;;;5.82;2.55;;;14.40;1.00;;;;;;5055767;28;20389;-80
2023/08/28 01:57:31;;;;;;;2.15;1.90;;;14.50;1.00;;;;;;5056139;28;20394;-81
2023/08/28 01:59:57;;;;;;;2.33;2.10;;;14.50;1.00;;;;;;5053446;28;20401;-81
2023/08/28 02:02:23;;;;;;;2.83;2.60;;;13.90;1.00;;;;;;5054639;28;20393;-80
2023/08/28 02:04:48;;;;;;;4.07;2.60;;;14.40;1.00;;;;;;5055236;28;20401;-81
2023/08/28 02:07:14;;;;;;;3.85;2.40;;;14.40;1.00;;;;;;5053445;28;20408;-80
2023/08/28 02:09:39;;;;;;;4.70;2.60;;;14.40;1.00;;;;;;5055902;28;20377;-81
2023/08/28 02:12:06;;;;;;;2.80;1.97;;;14.30;1.00;;;;;;5054834;28;20388;-81
2023/08/28 02:14:32;;;;;;;2.50;2.30;;;14.30;1.00;;;;;;5053553;28;20811;-80
2023/08/28 02:16:57;;;;;;;2.72;2.03;;;14.40;1.00;;;;;;5051314;28;20405;-81
2023/08/28 02:19:23;;;;;;;5.13;2.20;;;14.40;1.00;;;;;;5052720;28;20727;-80
2023/08/28 02:21:48;;;;;;;3.20;2.33;;;14.30;1.00;;;;;;5053684;28;20422;-81
2023/08/28 02:24:14;;;;;;;4.40;2.40;;;14.50;1.00;;;;;;5053801;28;20428;-81
2023/08/28 02:26:39;;;;;;;2.60;2.00;;;14.10;1.00;;;;;;5053542;28;20885;-81
2023/08/28 02:29:05;;;;;;;2.53;2.00;;;14.40;1.00;;;;;;5052661;28;20382;-80
2023/08/28 02:31:30;;;;;;;2.88;1.85;;;14.20;1.00;;;;;;5051922;28;20406;-80
2023/08/28 02:33:56;;;;;;;3.70;2.30;;;13.90;1.00;;;;;;5051836;28;20398;-80
2023/08/28 02:36:21;;;;;;;3.23;2.10;;;14.40;1.00;;;;;;5054135;28;20398;-81
2023/08/28 02:38:47;;;;;;;3.30;2.17;;;14.40;1.00;;;;;;5052881;28;20788;-81
2023/08/28 02:41:13;;;;;;;2.63;2.42;;;14.40;1.00;;;;;;5053557;28;20460;-80
2023/08/28 02:43:38;;;;;;;3.50;2.20;;;13.90;1.00;;;;;;5053690;28;20843;-81
2023/08/28 02:46:04;;;;;;;3.50;2.40;;;14.40;1.00;;;;;;5051776;28;20907;-80
2023/08/28 02:48:29;;;;;;;2.43;2.23;;;14.50;1.00;;;;;;5053602;28;20513;-79
2023/08/28 02:50:55;;;;;;;3.03;2.20;;;14.50;1.00;;;;;;5055538;28;20401;-80
2023/08/28 02:53:21;;;;;;;2.53;2.33;;;14.40;1.00;;;;;;5053651;28;20423;-80
2023/08/28 02:56:10;;;;;;;5.20;2.10;;;14.10;1.00;;;;;;5054033;28;20443;-81
2023/08/28 02:58:35;;;;;;;4.22;1.88;;;14.50;1.00;;;;;;5053505;28;20396;-80
2023/08/28 03:01:01;;;;;;;3.55;1.98;;;14.20;1.00;;;;;;5052295;28;20966;-81
2023/08/28 03:03:26;;;;;;;2.63;1.90;;;14.40;1.00;;;;;;5053143;28;20504;-80
2023/08/28 03:05:51;;;;;;;2.60;1.90;;;14.10;1.00;;;;;;5051472;28;20497;-80
2023/08/28 03:08:17;;;;;;;3.00;2.20;;;14.30;1.00;;;;;;5053106;28;20534;-80
2023/08/28 03:10:42;;;;;;;2.40;2.20;;;14.10;1.00;;;;;;5052299;28;20451;-80
2023/08/28 03:13:08;;;;;;;4.80;2.50;;;14.40;1.00;;;;;;5052453;28;20397;-80
2023/08/28 03:15:33;;;;;;;3.60;2.13;;;14.30;1.00;;;;;;5051663;28;20389;-80
2023/08/28 03:17:59;;;;;;;2.60;2.20;;;14.30;1.00;;;;;;5052933;28;20396;-80
2023/08/28 03:20:25;;;;;;;3.60;2.10;;;14.30;1.00;;;;;;5050592;28;20448;-81
2023/08/28 03:22:50;;;;;;;3.27;2.20;;;14.30;1.00;;;;;;5052024;28;20413;-80
2023/08/28 03:25:16;;;;;;;2.47;1.80;;;13.90;1.00;;;;;;5053320;28;20884;-80
2023/08/28 03:27:41;;;;;;;2.15;1.92;;;14.40;1.00;;;;;;5051669;28;20389;-80
2023/08/28 03:30:07;;;;;;;3.60;2.10;;;14.30;1.00;;;;;;5052761;28;20451;-80
2023/08/28 03:32:33;;;;;;;3.45;1.80;;;14.20;1.00;;;;;;5052924;28;20761;-80
2023/08/28 03:34:58;;;;;;;3.80;2.30;;;14.30;1.00;;;;;;5052502;28;20382;-80
2023/08/28 03:37:24;;;;;;;3.80;2.20;;;14.20;1.00;;;;;;5053016;28;20401;-80
2023/08/28 03:39:49;;;;;;;2.80;2.20;;;14.20;1.00;;;;;;5051375;28;20838;-80
2023/08/28 03:42:15;;;;;;;5.07;2.20;;;14.30;1.00;;;;;;5051413;28;20385;-80
2023/08/28 03:44:41;;;;;;;3.30;2.30;;;14.10;1.00;;;;;;5051549;28;20421;-80
2023/08/28 03:47:06;;;;;;;2.20;1.83;;;14.30;1.00;;;;;;5051214;28;20432;-80
2023/08/28 03:49:32;;;;;;;2.30;1.90;;;14.20;1.00;;;;;;5052132;28;20400;-81
2023/08/28 03:51:59;;;;;;;3.10;1.90;;;14.30;1.00;;;;;;5051983;28;20404;-80
2023/08/28 03:54:25;;;;;;;3.22;1.90;;;14.50;1.00;;;;;;5052937;28;20464;-80
2023/08/28 03:56:51;;;;;;;2.50;2.00;;;14.30;1.00;;;;;;5055662;28;20386;-80
2023/08/28 03:59:16;;;;;;;2.83;2.35;;;13.90;1.00;;;;;;5056099;28;20393;-80
2023/08/28 04:01:42;;;;;;;2.30;2.07;;;14.20;1.00;;;;;;5057144;28;20393;-80
2023/08/28 04:04:07;;;;;;;3.28;2.20;;;14.20;1.00;;;;;;5055651;28;20385;-80
2023/08/28 04:06:33;;;;;;;1.90;1.80;;;14.30;1.00;;;;;;5054761;28;20416;-80
2023/08/28 04:08:59;;;;;;;3.43;2.13;;;14.30;1.00;;;;;;5056352;28;20377;-79
2023/08/28 04:11:25;;;;;;;2.30;2.10;;;13.90;1.00;;;;;;5055127;28;20394;-80
2023/08/28 04:13:51;;;;;;;2.20;2.00;;;14.20;1.00;;;;;;5056529;28;20381;-81
2023/08/28 04:16:18;;;;;;;2.57;2.10;;;14.20;1.00;;;;;;5056452;28;20810;-80
2023/08/28 04:18:44;;;;;;;2.17;1.98;;;13.80;1.00;;;;;;5055938;28;20385;-80
2023/08/28 04:21:09;;;;;;;5.97;2.90;;;13.80;1.00;;;;;;5056275;28;20400;-80
2023/08/28 04:23:35;;;;;;;2.80;2.10;;;14.30;1.00;;;;;;5055522;28;20397;-80
2023/08/28 04:26:00;;;;;;;2.70;2.20;;;14.30;1.00;;;;;;5055688;28;20923;-80
2023/08/28 04:28:27;;;;;;;4.60;2.70;;;14.20;1.00;;;;;;5055255;28;20391;-80
2023/08/28 04:30:53;;;;;;;4.30;2.10;;;14.20;1.00;;;;;;5055334;28;20397;-80
2023/08/28 04:33:19;;;;;;;3.30;2.30;;;14.20;1.00;;;;;;5055184;28;20433;-80
2023/08/28 04:35:44;;;;;;;2.53;2.10;;;13.90;1.00;;;;;;5054595;28;21103;-80
2023/08/28 04:38:10;;;;;;;2.73;2.50;;;14.00;1.00;;;;;;5056312;28;20795;-79
2023/08/28 04:40:36;;;;;;;2.30;2.10;;;14.30;1.00;;;;;;5055952;28;20424;-80
2023/08/28 04:43:01;;;;;;;4.05;2.60;;;14.20;1.00;;;;;;5054564;28;20761;-80
2023/08/28 04:45:27;;;;;;;2.63;2.43;;;14.50;1.00;;;;;;5054328;28;20916;-80
2023/08/28 04:47:52;;;;;;;2.50;2.07;;;13.90;1.00;;;;;;5054378;28;20393;-80
2023/08/28 04:50:18;;;;;;;2.90;2.40;;;14.20;1.00;;;;;;5055339;28;20814;-80
2023/08/28 04:52:43;;;;;;;2.00;1.90;;;14.10;1.00;;;;;;5068773;28;20412;-79
2023/08/28 04:55:09;;;;;;;3.53;2.07;;;14.30;1.00;;;;;;5069657;28;20419;-79
2023/08/28 04:57:34;;;;;;;2.70;2.50;;;13.60;1.00;;;;;;5068569;28;20401;-79
2023/08/28 05:00:00;;;;;;;4.37;2.87;;;14.20;1.00;;;;;;5064570;28;20393;-81
2023/08/28 05:02:26;;;;;;;4.80;2.70;;;14.20;1.00;;;;;;5055933;28;21233;-80
2023/08/28 05:04:51;;;;;;;3.20;2.90;;;13.90;1.00;;;;;;5060217;28;20476;-79
2023/08/28 05:07:17;;;;;;;2.80;2.40;;;14.20;1.00;;;;;;5068455;28;20457;-79
2023/08/28 05:09:42;;;;;;;4.50;2.73;;;13.80;1.00;;;;;;5068923;28;20389;-79
2023/08/28 05:12:08;;;;;;;4.90;2.60;;;14.20;1.00;;;;;;5065040;28;20932;-79
2023/08/28 05:14:33;;;;;;;2.50;2.20;;;14.10;1.00;;;;;;5068471;28;20431;-79
2023/08/28 05:16:59;;;;;;;3.20;2.30;;;14.20;1.00;;;;;;5059727;28;20939;-81
2023/08/28 05:19:24;;;;;;;2.65;2.30;;;14.20;1.00;;;;;;5055531;28;20447;-81
2023/08/28 05:21:50;;;;;;;2.47;2.27;;;14.30;1.00;;;;;;5056167;28;20377;-81
2023/08/28 05:24:15;;;;;;;3.30;2.33;;;14.30;1.00;;;;;;5055792;28;20448;-81
2023/08/28 05:26:41;;;;;;;2.63;2.40;;;14.20;1.00;;;;;;5055465;28;20394;-81
2023/08/28 05:29:06;;;;;;;2.93;2.60;;;14.20;1.00;;;;;;5055313;28;20405;-80
2023/08/28 05:31:32;;;;;;;2.30;2.20;;;14.20;1.00;;;;;;5054786;28;20382;-81
2023/08/28 05:33:57;;;;;;;2.38;2.17;;;14.30;1.00;;;;;;5054207;28;20385;-81
2023/08/28 05:36:23;;;;;;;3.80;2.43;;;14.40;1.00;;;;;;5055060;28;20401;-81
2023/08/28 05:38:48;;;;;;;3.28;2.20;;;14.30;1.00;;;;;;5055015;28;20427;-80
2023/08/28 05:41:14;;;;;;;5.22;2.38;;;14.20;1.00;;;;;;5054053;28;20373;-81
2023/08/28 05:43:39;;;;;;;2.80;2.40;;;14.30;1.00;;;;;;5055108;28;20533;-81
2023/08/28 05:46:05;;;;;;;4.05;2.50;;;14.30;1.00;;;;;;5054144;28;20891;-81
2023/08/28 05:48:30;;;;;;;2.97;2.67;;;14.30;1.00;;;;;;5054137;28;20406;-81
2023/08/28 05:50:56;;;;;;;3.10;2.20;;;14.30;1.00;;;;;;5054418;28;20402;-81
2023/08/28 05:53:21;;;;;;;2.30;2.10;;;13.60;1.00;;;;;;5053757;28;20405;-80
2023/08/28 05:55:47;;;;;;;2.47;2.27;;;14.40;1.00;;;;;;5055440;28;20381;-81
2023/08/28 05:58:13;;;;;;;5.00;2.20;;;14.00;1.00;;;;;;5054786;28;20382;-81
2023/08/28 06:00:38;;;;;;;2.40;2.10;;;14.30;1.00;;;;;;5054023;28;20777;-81
2023/08/28 06:03:04;;;;;;;2.20;1.90;;;13.80;1.00;;;;;;5054622;28;20904;-80
2023/08/28 06:05:31;;;;;;;3.60;2.30;;;14.40;1.00;;;;;;5055117;28;20413;-81
2023/08/28 06:07:56;;;;;;;2.20;2.00;;;14.50;1.00;;;;;;5053980;28;20386;-81
2023/08/28 06:10:22;;;;;;;2.40;2.20;;;14.30;1.00;;;;;;5052810;28;20406;-81
2023/08/28 06:12:48;;;;;;;4.93;2.53;;;14.30;1.00;;;;;;5053284;28;20891;-81
2023/08/28 06:15:18;;;;;;;3.70;2.30;;;13.70;1.00;;;;;;5054690;28;20390;-81
2023/08/28 06:17:45;;;;;;;2.30;2.20;;;13.90;1.00;;;;;;5052447;28;20386;-81
2023/08/28 06:20:11;;;;;;;3.30;2.08;;;14.40;1.00;;;;;;5053390;28;20466;-81
2023/08/28 06:22:37;;;;;;;3.33;2.00;;;14.40;1.00;;;;;;5055069;28;20390;-81
2023/08/28 06:25:03;;;;;;;2.90;1.93;;;14.00;1.00;;;;;;5057903;28;20417;-80
2023/08/28 06:27:29;;;;;;;2.90;2.30;;;14.30;1.00;;;;;;5066638;28;20401;-79
2023/08/28 06:29:54;;;;;;;3.28;2.10;;;14.40;1.00;;;;;;5056932;28;20393;-80
2023/08/28 06:32:20;;;;;;;2.70;2.10;;;14.30;1.00;;;;;;5055087;28;20472;-80
2023/08/28 06:34:45;;;;;;;2.30;1.70;;;14.50;1.00;;;;;;5053419;28;20389;-80
2023/08/28 06:37:11;;;;;;;3.17;1.90;;;14.40;1.00;;;;;;5057043;28;20406;-80
2023/08/28 06:39:37;;;;;;;4.13;2.20;;;14.50;1.00;;;;;;5063178;28;20401;-78
2023/08/28 06:42:02;;;;;;;2.35;2.15;;;14.70;1.00;;;;;;5065260;28;20521;-80
2023/08/28 06:44:28;;;;;;;2.10;1.60;;;14.60;1.00;;;;;;5060806;28;20780;-80
2023/08/28 06:46:53;;;;;;;3.63;2.03;;;14.70;1.00;;;;;;5053763;28;20401;-80
2023/08/28 06:49:19;;;;;;;3.30;2.30;;;14.50;1.00;;;;;;5054577;28;20432;-80
2023/08/28 06:51:46;;;;;;;2.90;2.25;;;14.80;1.00;;;;;;5054045;28;20397;-80
2023/08/28 06:54:11;;;;;;;2.10;1.70;;;14.10;1.00;;;;;;5053008;28;20382;-80
2023/08/28 06:56:37;;;;;;;3.50;2.13;;;14.50;1.00;;;;;;5052185;28;20409;-80
2023/08/28 06:59:03;;;;;;;2.80;1.80;;;14.90;1.00;;;;;;5052306;28;20389;-81
2023/08/28 07:01:28;;;;;;;2.05;1.85;;;14.90;1.00;;;;;;5052955;28;20425;-81
2023/08/28 07:03:54;;;;;;;3.15;2.22;;;14.80;1.00;;;;;;5051972;28;20409;-80
2023/08/28 07:06:19;;;;;;;2.50;1.90;;;14.90;1.00;;;;;;5053665;28;20540;-81
2023/08/28 07:08:45;;;;;;;2.10;1.90;;;14.70;1.00;;;;;;5054292;28;20417;-81
2023/08/28 07:11:10;;;;;;;2.10;1.90;;;15.00;1.00;;;;;;5053943;28;20417;-80
2023/08/28 07:13:36;;;;;;;1.90;1.70;;;14.50;1.00;;;;;;5053749;28;20387;-80
2023/08/28 07:16:02;;;;;;;3.70;2.00;;;14.90;1.00;;;;;;5053333;28;20496;-81
2023/08/28 07:18:29;;;;;;;1.70;1.60;;;14.90;1.00;;;;;;5052669;28;20438;-80
2023/08/28 07:20:54;;;;;;;2.80;2.00;;;14.70;1.00;;;;;;5051716;28;20419;-80
2023/08/28 07:23:21;;;;;;;2.40;2.10;;;14.90;1.00;;;;;;5052041;28;20389;-81
2023/08/28 07:25:47;;;;;;;2.40;2.10;;;14.80;1.00;;;;;;5052455;28;20397;-81
2023/08/28 07:28:12;;;;;;;2.20;2.00;;;15.20;1.00;;;;;;5054025;28;20477;-81
2023/08/28 07:30:39;;;;;;;3.47;1.90;;;14.80;1.00;;;;;;5075809;22;20433;-80
2023/08/28 07:33:05;;;;;;;3.42;1.88;;;14.80;1.00;;;;;;5066532;28;20964;-82
2023/08/28 07:35:34;;;;;;;2.88;1.67;;;14.50;1.00;;;;;;5071926;28;20396;-79
2023/08/28 07:38:03;;;;;;;2.17;1.90;;;14.90;1.00;;;;;;5070872;28;20395;-81
2023/08/28 07:40:29;;;;;;;2.58;1.70;;;14.30;1.00;;;;;;5071050;28;20387;-81
2023/08/28 07:42:54;;;;;;;2.30;1.70;;;14.80;1.00;;;;;;5063410;28;20425;-81
2023/08/28 07:45:20;;;;;;;2.80;1.70;;;15.30;1.00;;;;;;5051130;28;20405;-82
2023/08/28 07:47:45;;;;;;;1.97;1.80;;;14.90;1.00;;;;;;5051921;28;20484;-82
2023/08/28 07:50:11;;;;;;;2.80;1.90;;;13.80;1.00;;;;;;5062811;28;20414;-81
2023/08/28 07:52:36;;;;;;;2.40;1.90;;;14.60;1.00;;;;;;5073183;28;20433;-80
2023/08/28 07:55:02;;;;;;;1.60;1.50;;;14.80;1.00;;;;;;5073899;28;20477;-82
2023/08/28 07:57:28;;;;;;;3.20;1.90;;;15.00;1.00;;;;;;5071992;28;20392;-81
2023/08/28 07:59:54;;;;;;;4.47;2.00;;;14.90;1.00;;;;;;5069713;28;20874;-81
2023/08/28 08:02:19;;;;;;;3.28;2.10;;;14.80;1.00;;;;;;5072602;28;20415;-82
2023/08/28 08:04:45;;;;;;;5.40;2.90;;;14.90;1.00;;;;;;5071619;28;20400;-82
2023/08/28 08:07:10;;;;;;;4.20;2.80;;;14.80;1.00;;;;;;5071442;28;20384;-81
2023/08/28 08:09:36;;;;;;;3.78;3.30;;;14.70;1.00;;;;;;5068764;28;20372;-81
2023/08/28 08:12:02;;;;;;;3.03;2.83;;;14.30;1.00;;;;;;5057456;28;20399;-80
2023/08/28 08:14:27;;;;;;;4.10;3.00;;;15.40;1.00;;;;;;5071455;28;20482;-81
2023/08/28 08:16:53;;;;;;;3.77;3.20;;;14.60;1.00;;;;;;5061653;28;20397;-80
2023/08/28 08:19:18;;;;;;;4.40;2.90;;;14.70;1.00;;;;;;5074691;28;20377;-79
2023/08/28 08:21:44;;;;;;;5.03;3.60;;;14.40;1.00;;;;;;5074204;28;20397;-79
2023/08/28 08:24:09;;;;;;;3.10;2.90;;;14.40;1.00;;;;;;5062695;28;20423;-80
2023/08/28 08:26:35;;;;;;;3.33;3.10;;;15.60;1.00;;;;;;5064047;28;20392;-81
2023/08/28 08:29:00;;;;;;;4.20;3.80;;;14.50;1.00;;;;;;5073569;28;20459;-81
2023/08/28 08:31:26;;;;;;;5.10;3.93;;;14.70;1.00;;;;;;5057464;28;20839;-82
2023/08/28 08:33:51;;;;;;;4.67;4.20;;;14.30;1.00;;;;;;5054204;28;20430;-81
2023/08/28 08:36:17;;;;;;;4.30;3.90;;;14.60;1.00;;;;;;5053512;28;20411;-81
2023/08/28 08:38:43;;;;;;;4.28;3.88;;;15.00;1.00;;;;;;5052990;28;20476;-81
2023/08/28 08:41:09;;;;;;;6.57;3.90;;;14.40;1.00;;;;;;5068239;28;20398;-82
2023/08/28 08:43:34;;;;;;;5.20;4.07;;;14.80;1.00;;;;;;5071675;28;20410;-81
2023/08/28 08:46:05;;;;;;;6.72;4.10;;;14.80;1.00;;;;;;5077307;28;20408;-81
2023/08/28 08:48:38;;;;;;;4.80;3.60;;;14.80;1.00;;;;;;5078263;28;20384;-82
2023/08/28 08:51:06;;;;;;;9.45;4.60;;;15.80;1.00;;;;;;5078492;28;20950;-81
2023/08/28 08:53:48;;;;;;;4.50;3.55;;;15.70;1.00;;;;;;5076120;28;20442;-81
2023/08/28 08:56:17;;;;;;;3.70;3.30;;;15.10;1.00;;;;;;5060508;28;20880;-81
2023/08/28 08:58:43;;;;;;;4.40;4.00;;;15.30;1.00;;;;;;5061266;28;20397;-82
2023/08/28 09:01:09;;;;;;;4.80;3.30;;;15.30;1.00;;;;;;5061541;28;20797;-82
2023/08/28 09:03:38;;;;;;;3.85;3.17;;;14.70;1.00;;;;;;5077164;28;20379;-82
2023/08/28 09:06:06;;;;;;;3.40;3.20;;;15.00;1.00;;;;;;5078034;28;20399;-82
2023/08/28 09:08:34;;;;;;;3.88;2.80;;;15.60;1.00;;;;;;5076410;28;20383;-81
2023/08/28 09:11:00;;;;;;;3.08;2.70;;;15.40;1.00;;;;;;5073822;28;20501;-82
2023/08/28 09:13:26;;;;;;;3.42;3.00;;;14.90;1.00;;;;;;5063992;28;20407;-82
2023/08/28 09:15:52;;;;;;;3.50;3.20;;;15.30;1.00;;;;;;5077522;28;20391;-82
2023/08/28 09:18:17;;;;;;;3.97;3.53;;;15.60;1.00;;;;;;5076951;28;20445;-82
2023/08/28 09:20:43;;;;;;;4.68;3.97;;;15.60;1.00;;;;;;5074997;28;20376;-82
2023/08/28 09:23:09;;;;;;;5.00;3.80;;;15.30;1.00;;;;;;5057193;28;20397;-83
2023/08/28 09:25:34;;;;;;;3.72;3.42;;;16.70;1.00;;;;;;5075129;28;20398;-82
2023/08/28 09:28:00;;;;;;;4.20;3.70;;;15.30;1.00;;;;;;5075429;28;20427;-82
2023/08/28 09:30:36;;;;;;;3.40;3.10;;;15.10;1.00;;;;;;5074753;28;20460;-81
2023/08/28 09:33:06;;;;;;;4.40;3.45;;;16.20;1.00;;;;;;5075304;28;20899;-82
2023/08/28 09:35:42;;;;;;;4.70;3.75;;;15.30;1.00;;;;;;5057484;28;20885;-82
2023/08/28 09:38:08;;;;;;;3.95;3.33;;;15.40;1.00;;;;;;5067779;28;20428;-82
2023/08/28 09:40:39;;;;;;;4.70;4.20;;;14.90;1.00;;;;;;5075933;28;20380;-82
2023/08/28 09:43:15;;;;;;;3.67;3.37;;;15.60;1.00;;;;;;5070440;28;20389;-81
2023/08/28 09:45:42;;;;;;;4.63;3.55;;;15.50;1.00;;;;;;5056916;28;20409;-81
2023/08/28 09:48:09;;;;;;;3.92;3.63;;;15.60;1.00;;;;;;5056697;28;20456;-83
2023/08/28 09:50:38;;;;;;;4.47;3.10;;;15.80;1.00;;;;;;5054180;28;20385;-81
2023/08/28 09:53:10;;;;;;;4.50;3.22;;;15.70;1.00;;;;;;5067156;28;20802;-82
2023/08/28 09:55:51;;;;;;;3.97;3.40;;;15.00;1.00;;;;;;5074160;28;20456;-82
2023/08/28 09:58:17;;;;;;;4.13;3.30;;;15.70;1.00;;;;;;5074698;28;20387;-82
2023/08/28 10:00:44;;;;;;;3.40;3.10;;;15.80;1.00;;;;;;5077893;28;20380;-82
2023/08/28 10:03:12;;;;;;;4.80;3.30;;;15.70;1.00;;;;;;5072508;28;20392;-81
2023/08/28 10:05:40;;;;;;;4.93;3.40;;;15.70;1.00;;;;;;5082551;28;20433;-80
2023/08/28 10:08:10;;;;;;;3.88;3.22;;;15.70;1.00;;;;;;5072787;28;20414;-80
2023/08/28 10:10:37;;;;;;;3.55;3.25;;;15.80;1.00;;;;;;5075205;28;20392;-80
2023/08/28 10:13:04;;;;;;;3.70;3.40;;;15.80;1.00;;;;;;5074379;28;20443;-82
2023/08/28 10:15:32;;;;;;;4.00;3.30;;;15.80;1.00;;;;;;5076384;28;20453;-82
2023/08/28 10:18:06;;;;;;;3.70;3.40;;;15.80;1.00;;;;;;5063452;28;20381;-82
2023/08/28 10:20:33;;;;;;;4.90;4.00;;;16.00;1.00;;;;;;5070785;28;20388;-82
2023/08/28 10:23:00;;;;;;;4.00;3.70;;;15.50;1.00;;;;;;5058728;28;20417;-82
2023/08/28 10:25:29;;;;;;;4.30;3.80;;;15.90;1.00;;;;;;5068170;28;20411;-82
2023/08/28 10:27:56;;;;;;;3.78;3.38;;;15.90;1.00;;;;;;5062842;28;20381;-82
2023/08/28 10:30:24;;;;;;;5.03;3.80;;;15.70;1.00;;;;;;5070710;28;20396;-82
2023/08/28 10:32:51;;;;;;;6.35;3.90;;;15.60;1.00;;;;;;5058249;28;20384;-81
2023/08/28 10:35:18;;;;;;;4.30;4.00;;;15.80;1.00;;;;;;5065272;28;20851;-81
2023/08/28 10:37:45;;;;;;;5.10;4.35;;;15.60;1.00;;;;;;5073512;28;20492;-81
2023/08/28 10:40:12;;;;;;;4.97;4.53;;;15.50;1.00;;;;;;5058386;28;20386;-82
2023/08/28 10:42:38;;;;;;;4.95;4.45;;;15.10;1.00;;;;;;5070474;28;20893;-81
2023/08/28 10:45:04;;;;;;;10.77;4.78;;;15.70;1.00;;;;;;5074694;28;20407;-80
2023/08/28 10:47:29;;;;;;;4.82;4.43;;;15.70;1.00;;;;;;5064390;28;20385;-81
2023/08/28 10:49:55;;;;;;;5.20;4.20;;;15.70;1.00;;;;;;5057810;28;20753;-82
2023/08/28 10:52:22;;;;;;;4.90;4.30;;;15.60;1.00;;;;;;5062395;28;20403;-82
2023/08/28 10:54:48;;;;;;;4.60;4.20;;;15.20;1.00;;;;;;5055207;28;20473;-81
2023/08/28 10:57:27;;;;;;;5.30;4.80;;;15.50;1.00;;;;;;5054291;28;20877;-82
2023/08/28 10:59:54;;;;;;;4.70;4.25;;;15.50;1.00;;;;;;5059785;28;20917;-82
2023/08/28 11:02:20;;;;;;;4.80;4.40;;;15.40;1.00;;;;;;5072045;28;20816;-81
2023/08/28 11:04:46;;;;;;;6.50;5.00;;;15.40;1.00;;;;;;5072921;28;20477;-81
2023/08/28 11:07:21;;;;;;;5.93;5.03;;;15.30;1.00;;;;;;5072220;28;20467;-81
2023/08/28 11:09:50;;;;;;;6.72;4.90;;;14.90;1.00;;;;;;5076979;28;20415;-83
2023/08/28 11:12:18;;;;;;;5.63;5.13;;;15.40;1.00;;;;;;5065076;28;20565;-82
2023/08/28 11:14:53;;;;;;;7.50;6.80;;;15.10;1.00;;;;;;5060522;28;20480;-81
2023/08/28 11:17:20;;;;;;;6.70;5.40;;;15.00;1.00;;;;;;5061559;28;20393;-84
2023/08/28 11:19:59;;;;;;;7.10;6.37;;;14.20;1.00;;;;;;5067700;28;20402;-83
2023/08/28 11:22:33;;;;;;;7.18;6.45;;;14.80;1.00;;;;;;5041545;28;20388;-84
2023/08/28 11:25:00;;;;;;;8.23;7.53;;;15.10;1.00;;;;;;5072216;28;20785;-84
2023/08/28 11:27:33;;;;;;;6.70;6.10;;;15.00;1.00;;;;;;5075021;28;20383;-84
2023/08/28 11:30:05;;;;;;;7.45;6.75;;;15.00;1.00;;;;;;5057658;28;20461;-84
2023/08/28 11:32:31;;;;;;;6.90;6.30;;;15.10;1.00;;;;;;5069889;28;20512;-81
2023/08/28 11:34:59;;;;;;;7.60;6.90;;;14.40;1.00;;;;;;5056843;28;20404;-83
2023/08/28 11:37:35;;;;;;;7.88;7.18;;;14.70;1.00;;;;;;5062253;28;20413;-82
2023/08/28 11:40:05;;;;;;;8.20;7.50;;;14.40;1.00;;;;;;5048705;28;20804;-83
2023/08/28 11:42:32;;;;;;;8.77;8.07;;;15.00;1.00;;;;;;5055129;28;20460;-82
2023/08/28 11:44:58;;;;;;;9.45;8.55;;;14.90;1.00;;;;;;5053846;28;20414;-82
2023/08/28 11:47:28;;;;;;;9.40;8.50;;;14.90;1.00;;;;;;5056178;28;20404;-82
2023/08/28 11:49:54;;;;;;;9.55;8.55;;;15.10;1.00;;;;;;5057109;28;20454;-83
2023/08/28 11:52:21;;;;;;;9.43;8.50;;;14.60;1.00;;;;;;5060988;28;20390;-83
2023/08/28 11:54:47;;;;;;;9.85;8.95;;;14.90;1.00;;;;;;5058006;28;20401;-83
2023/08/28 11:57:19;;;;;;;9.90;8.90;;;15.00;1.00;;;;;;5070647;28;20503;-84
2023/08/28 11:59:48;;;;;;;10.10;9.20;;;15.20;1.00;;;;;;5062287;28;20395;-84
2023/08/28 12:02:15;;;;;;;9.45;8.55;;;16.00;1.00;;;;;;5059349;28;20881;-84
2023/08/28 12:04:41;;;;;;;9.98;9.07;;;15.00;1.00;;;;;;5069924;28;20498;-83
2023/08/28 12:07:21;;;;;;;10.07;9.07;;;15.10;1.00;;;;;;5056675;28;20411;-83
2023/08/28 12:09:48;;;;;;;10.32;9.43;;;15.20;1.00;;;;;;5066254;28;20393;-83
2023/08/28 12:12:17;;;;;;;10.93;9.93;;;14.70;1.00;;;;;;5061731;28;20747;-82
2023/08/28 12:14:44;;;;;;;9.60;8.80;;;15.60;1.00;;;;;;5058949;28;20416;-83
2023/08/28 12:17:14;;;;;;;11.27;10.13;;;15.10;1.00;;;;;;5070402;28;20443;-83
2023/08/28 12:19:40;;;;;;;10.38;9.48;;;15.10;1.00;;;;;;5096087;28;20395;-83
2023/08/28 12:22:07;;;;;;;10.95;9.95;;;15.20;1.00;;;;;;5070277;28;20405;-83
2023/08/28 12:24:32;;;;;;;10.30;9.30;;;15.20;1.00;;;;;;5060439;28;20409;-83
2023/08/28 12:26:58;;;;;;;10.70;9.60;;;15.10;1.00;;;;;;5057341;28;20389;-82
2023/08/28 12:29:25;;;;;;;10.33;9.40;;;15.30;1.00;;;;;;5056746;28;20476;-83
2023/08/28 12:31:50;;;;;;;9.35;8.55;;;15.30;1.00;;;;;;5059368;28;20385;-84
2023/08/28 12:34:16;;;;;;;9.03;8.23;;;15.30;1.00;;;;;;5059544;28;20384;-83
2023/08/28 12:36:46;;;;;;;9.60;8.67;;;15.10;1.00;;;;;;5058652;28;20393;-83
2023/08/28 12:39:16;;;;;;;8.98;8.18;;;14.80;1.00;;;;;;5073387;28;20393;-81
2023/08/28 12:41:55;;;;;;;9.82;8.05;;;14.90;1.00;;;;;;5079300;28;20397;-81
2023/08/28 12:44:22;;;;;;;8.90;8.00;;;15.60;1.00;;;;;;5069804;28;20409;-83
2023/08/28 12:46:49;;;;;;;9.85;8.85;;;15.10;1.00;;;;;;5059964;28;20451;-83
2023/08/28 12:49:18;;;;;;;8.35;7.65;;;14.90;1.00;;;;;;5058411;28;20396;-83
2023/08/28 12:51:44;;;;;;;9.10;8.20;;;15.20;1.00;;;;;;5058802;28;20753;-83
2023/08/28 12:54:12;;;;;;;9.20;8.13;;;15.80;1.00;;;;;;5060493;28;20413;-83
2023/08/28 12:56:39;;;;;;;8.50;7.80;;;15.00;1.00;;;;;;5059870;28;20408;-83